sensor_id;sensor_type;location;lat;lon;timestamp;pressure;altitude;pressure_sealevel;temperature;humidity
81897;BME280;71360;43.506;1.500;2023-12-20T00:00:13;99983.44;;;6.63;78.08
81897;BME280;71360;43.506;1.500;2023-12-20T00:02:39;99986.91;;;6.65;78.12
81897;BME280;71360;43.506;1.500;2023-12-20T00:05:05;99970.94;;;6.68;77.88
81897;BME280;71360;43.506;1.500;2023-12-20T00:07:30;99967.34;;;6.69;77.63
81897;BME280;71360;43.506;1.500;2023-12-20T00:09:55;99959.34;;;6.70;77.69
81897;BME280;71360;43.506;1.500;2023-12-20T00:12:21;99959.34;;;6.70;77.87
81897;BME280;71360;43.506;1.500;2023-12-20T00:14:46;99952.22;;;6.72;77.87
81897;BME280;71360;43.506;1.500;2023-12-20T00:17:12;99956.59;;;6.75;78.15
81897;BME280;71360;43.506;1.500;2023-12-20T00:19:37;99958.31;;;6.78;77.77
81897;BME280;71360;43.506;1.500;2023-12-20T00:22:03;99954.69;;;6.80;77.84
81897;BME280;71360;43.506;1.500;2023-12-20T00:24:28;99957.31;;;6.82;78.01
81897;BME280;71360;43.506;1.500;2023-12-20T00:26:54;99952.78;;;6.85;77.65
81897;BME280;71360;43.506;1.500;2023-12-20T00:29:19;99947.47;;;6.85;77.72
81897;BME280;71360;43.506;1.500;2023-12-20T00:31:45;99940.34;;;6.87;77.74
81897;BME280;71360;43.506;1.500;2023-12-20T00:34:10;99931.47;;;6.88;77.73
81897;BME280;71360;43.506;1.500;2023-12-20T00:36:36;99927.03;;;6.89;77.54
81897;BME280;71360;43.506;1.500;2023-12-20T00:39:02;99920.84;;;6.88;77.67
81897;BME280;71360;43.506;1.500;2023-12-20T00:41:27;99922.56;;;6.89;77.47
81897;BME280;71360;43.506;1.500;2023-12-20T00:43:53;99917.25;;;6.89;77.24
81897;BME280;71360;43.506;1.500;2023-12-20T00:46:18;99919.91;;;6.91;77.86
81897;BME280;71360;43.506;1.500;2023-12-20T00:48:44;99909.22;;;6.92;77.27
81897;BME280;71360;43.506;1.500;2023-12-20T00:51:11;99898.59;;;6.92;77.48
81897;BME280;71360;43.506;1.500;2023-12-20T00:53:36;99901.25;;;6.92;77.64
81897;BME280;71360;43.506;1.500;2023-12-20T00:56:02;99891.44;;;6.95;77.40
81897;BME280;71360;43.506;1.500;2023-12-20T00:58:27;99894.94;;;6.97;77.63
81897;BME280;71360;43.506;1.500;2023-12-20T01:00:53;99901.13;;;6.97;77.71
81897;BME280;71360;43.506;1.500;2023-12-20T01:03:19;99901.09;;;6.99;77.70
81897;BME280;71360;43.506;1.500;2023-12-20T01:05:44;99895.78;;;6.99;77.24
81897;BME280;71360;43.506;1.500;2023-12-20T01:08:09;99897.53;;;7.00;77.25
81897;BME280;71360;43.506;1.500;2023-12-20T01:10:35;99893.97;;;7.01;77.43
81897;BME280;71360;43.506;1.500;2023-12-20T01:13:00;99893.06;;;7.02;77.44
81897;BME280;71360;43.506;1.500;2023-12-20T01:15:26;99888.56;;;7.04;76.87
81897;BME280;71360;43.506;1.500;2023-12-20T01:17:51;99884.09;;;7.06;77.27
81897;BME280;71360;43.506;1.500;2023-12-20T01:20:17;99884.03;;;7.07;77.12
81897;BME280;71360;43.506;1.500;2023-12-20T01:22:45;99891.94;;;7.10;77.18
81897;BME280;71360;43.506;1.500;2023-12-20T01:25:11;99891.88;;;7.12;76.92
81897;BME280;71360;43.506;1.500;2023-12-20T01:27:36;99881.16;;;7.15;76.84
81897;BME280;71360;43.506;1.500;2023-12-20T01:30:02;99872.19;;;7.19;76.74
81897;BME280;71360;43.506;1.500;2023-12-20T01:32:27;99870.38;;;7.21;76.47
81897;BME280;71360;43.506;1.500;2023-12-20T01:34:52;99880.97;;;7.23;76.75
81897;BME280;71360;43.506;1.500;2023-12-20T01:37:18;99875.63;;;7.24;76.74
81897;BME280;71360;43.506;1.500;2023-12-20T01:39:43;99879.13;;;7.26;76.81
81897;BME280;71360;43.506;1.500;2023-12-20T01:42:09;99869.34;;;7.27;76.55
81897;BME280;71360;43.506;1.500;2023-12-20T01:44:34;99870.22;;;7.28;76.56
81897;BME280;71360;43.506;1.500;2023-12-20T01:47:00;99859.50;;;7.31;76.52
81897;BME280;71360;43.506;1.500;2023-12-20T01:49:26;99862.97;;;7.33;76.54
81897;BME280;71360;43.506;1.500;2023-12-20T01:51:51;99852.28;;;7.34;76.25
81897;BME280;71360;43.506;1.500;2023-12-20T01:54:19;99850.44;;;7.38;76.42
81897;BME280;71360;43.506;1.500;2023-12-20T01:56:46;99852.19;;;7.39;76.53
81897;BME280;71360;43.506;1.500;2023-12-20T01:59:12;99854.72;;;7.43;76.19
81897;BME280;71360;43.506;1.500;2023-12-20T02:01:37;99852.00;;;7.45;75.83
81897;BME280;71360;43.506;1.500;2023-12-20T02:04:03;99843.97;;;7.48;75.42
81897;BME280;71360;43.506;1.500;2023-12-20T02:06:29;99849.22;;;7.50;76.19
81897;BME280;71360;43.506;1.500;2023-12-20T02:08:57;99841.19;;;7.51;75.79
81897;BME280;71360;43.506;1.500;2023-12-20T02:11:23;99824.28;;;7.54;76.01
81897;BME280;71360;43.506;1.500;2023-12-20T02:13:50;99828.69;;;7.55;76.45
81897;BME280;71360;43.506;1.500;2023-12-20T02:16:16;99826.81;;;7.58;75.80
81897;BME280;71360;43.506;1.500;2023-12-20T02:18:42;99829.41;;;7.62;75.76
81897;BME280;71360;43.506;1.500;2023-12-20T02:21:09;99819.66;;;7.60;75.24
81897;BME280;71360;43.506;1.500;2023-12-20T02:23:34;99814.34;;;7.60;75.47
81897;BME280;71360;43.506;1.500;2023-12-20T02:26:00;99816.94;;;7.62;75.88
81897;BME280;71360;43.506;1.500;2023-12-20T02:28:26;99811.59;;;7.64;75.65
81897;BME280;71360;43.506;1.500;2023-12-20T02:30:52;99798.19;;;7.67;75.54
81897;BME280;71360;43.506;1.500;2023-12-20T02:33:17;99785.81;;;7.66;75.57
81897;BME280;71360;43.506;1.500;2023-12-20T02:35:42;99781.31;;;7.68;75.63
81897;BME280;71360;43.506;1.500;2023-12-20T02:38:08;99776.81;;;7.70;75.64
81897;BME280;71360;43.506;1.500;2023-12-20T02:40:33;99783.88;;;7.71;75.68
81897;BME280;71360;43.506;1.500;2023-12-20T02:42:59;99783.81;;;7.72;75.34
81897;BME280;71360;43.506;1.500;2023-12-20T02:45:25;99786.47;;;7.74;75.42
81897;BME280;71360;43.506;1.500;2023-12-20T02:47:50;99782.06;;;7.73;75.51
81897;BME280;71360;43.506;1.500;2023-12-20T02:50:16;99778.47;;;7.74;75.28
81897;BME280;71360;43.506;1.500;2023-12-20T02:52:44;99778.47;;;7.74;74.82
81897;BME280;71360;43.506;1.500;2023-12-20T02:55:10;99780.25;;;7.73;75.33
81897;BME280;71360;43.506;1.500;2023-12-20T02:57:35;99781.13;;;7.74;75.62
81897;BME280;71360;43.506;1.500;2023-12-20T03:00:01;99767.84;;;7.72;75.65
81897;BME280;71360;43.506;1.500;2023-12-20T03:02:27;99765.16;;;7.74;75.23
81897;BME280;71360;43.506;1.500;2023-12-20T03:04:52;99753.56;;;7.76;74.95
81897;BME280;71360;43.506;1.500;2023-12-20T03:07:17;99750.00;;;7.76;75.43
81897;BME280;71360;43.506;1.500;2023-12-20T03:09:43;99746.41;;;7.78;75.03
81897;BME280;71360;43.506;1.500;2023-12-20T03:12:08;99750.75;;;7.81;75.65
81897;BME280;71360;43.506;1.500;2023-12-20T03:14:34;99744.41;;;7.85;75.62
81897;BME280;71360;43.506;1.500;2023-12-20T03:16:59;99743.50;;;7.86;75.88
81897;BME280;71360;43.506;1.500;2023-12-20T03:19:25;99736.31;;;7.88;76.52
81897;BME280;71360;43.506;1.500;2023-12-20T03:21:50;99725.63;;;7.90;76.33
81897;BME280;71360;43.506;1.500;2023-12-20T03:24:16;99731.06;;;7.87;76.71
81897;BME280;71360;43.506;1.500;2023-12-20T03:26:41;99726.66;;;7.86;76.89
81897;BME280;71360;43.506;1.500;2023-12-20T03:29:06;99729.41;;;7.83;76.64
81897;BME280;71360;43.506;1.500;2023-12-20T03:31:32;99733.13;;;7.77;77.31
81897;BME280;71360;43.506;1.500;2023-12-20T03:33:57;99735.94;;;7.72;77.25
81897;BME280;71360;43.506;1.500;2023-12-20T03:36:23;99721.97;;;7.66;77.72
81897;BME280;71360;43.506;1.500;2023-12-20T03:38:48;99726.50;;;7.62;78.07
81897;BME280;71360;43.506;1.500;2023-12-20T03:41:14;99718.69;;;7.56;78.55
81897;BME280;71360;43.506;1.500;2023-12-20T03:43:39;99717.09;;;7.50;78.63
81897;BME280;71360;43.506;1.500;2023-12-20T03:46:05;99729.66;;;7.45;79.21
81897;BME280;71360;43.506;1.500;2023-12-20T03:48:31;99724.53;;;7.39;79.91
81897;BME280;71360;43.506;1.500;2023-12-20T03:50:57;99724.66;;;7.34;79.84
81897;BME280;71360;43.506;1.500;2023-12-20T03:53:22;99715.91;;;7.31;80.82
81897;BME280;71360;43.506;1.500;2023-12-20T03:55:48;99716.13;;;7.23;80.58
81897;BME280;71360;43.506;1.500;2023-12-20T03:58:13;99719.75;;;7.20;81.19
81897;BME280;71360;43.506;1.500;2023-12-20T04:00:39;99714.53;;;7.17;81.17
81897;BME280;71360;43.506;1.500;2023-12-20T04:03:04;99710.16;;;7.15;81.53
81897;BME280;71360;43.506;1.500;2023-12-20T04:05:29;99712.03;;;7.13;81.97
81897;BME280;71360;43.506;1.500;2023-12-20T04:07:55;99698.75;;;7.11;81.87
81897;BME280;71360;43.506;1.500;2023-12-20T04:10:20;99699.75;;;7.07;81.81
81897;BME280;71360;43.506;1.500;2023-12-20T04:12:46;99694.53;;;7.04;82.35
81897;BME280;71360;43.506;1.500;2023-12-20T04:15:11;99695.50;;;7.01;82.40
81897;BME280;71360;43.506;1.500;2023-12-20T04:17:37;99700.94;;;6.97;82.46
81897;BME280;71360;43.506;1.500;2023-12-20T04:20:03;99700.09;;;6.95;83.01
81897;BME280;71360;43.506;1.500;2023-12-20T04:22:28;99689.63;;;6.90;83.11
81897;BME280;71360;43.506;1.500;2023-12-20T04:24:54;99689.66;;;6.88;82.88
81897;BME280;71360;43.506;1.500;2023-12-20T04:27:19;99683.47;;;6.88;83.68
81897;BME280;71360;43.506;1.500;2023-12-20T04:29:44;99682.66;;;6.86;83.70
81897;BME280;71360;43.506;1.500;2023-12-20T04:32:10;99681.75;;;6.85;84.25
81897;BME280;71360;43.506;1.500;2023-12-20T04:34:36;99669.41;;;6.84;84.16
81897;BME280;71360;43.506;1.500;2023-12-20T04:37:01;99678.28;;;6.83;84.32
81897;BME280;71360;43.506;1.500;2023-12-20T04:39:27;99668.53;;;6.84;84.79
81897;BME280;71360;43.506;1.500;2023-12-20T04:41:52;99673.78;;;6.85;85.36
81897;BME280;71360;43.506;1.500;2023-12-20T04:44:18;99680.03;;;6.84;85.05
81897;BME280;71360;43.506;1.500;2023-12-20T04:46:44;99663.16;;;6.87;85.57
81897;BME280;71360;43.506;1.500;2023-12-20T04:49:09;99657.78;;;6.88;86.14
81897;BME280;71360;43.506;1.500;2023-12-20T04:51:35;99659.47;;;6.91;86.03
81897;BME280;71360;43.506;1.500;2023-12-20T04:54:01;99659.44;;;6.92;86.42
81897;BME280;71360;43.506;1.500;2023-12-20T04:56:28;99654.94;;;6.95;85.95
81897;BME280;71360;43.506;1.500;2023-12-20T04:58:54;99656.56;;;6.99;86.43
81897;BME280;71360;43.506;1.500;2023-12-20T05:01:19;99656.50;;;7.02;86.66
81897;BME280;71360;43.506;1.500;2023-12-20T05:03:48;99651.09;;;7.05;86.97
81897;BME280;71360;43.506;1.500;2023-12-20T05:06:14;99651.91;;;7.07;87.07
81897;BME280;71360;43.506;1.500;2023-12-20T05:08:40;99650.91;;;7.11;87.00
81897;BME280;71360;43.506;1.500;2023-12-20T05:11:06;99640.19;;;7.14;87.50
81897;BME280;71360;43.506;1.500;2023-12-20T05:13:31;99649.81;;;7.18;87.35
81897;BME280;71360;43.506;1.500;2023-12-20T05:15:57;99651.53;;;7.19;87.40
81897;BME280;71360;43.506;1.500;2023-12-20T05:18:23;99644.41;;;7.21;87.73
81897;BME280;71360;43.506;1.500;2023-12-20T05:20:49;99657.59;;;7.24;87.80
81897;BME280;71360;43.506;1.500;2023-12-20T05:23:15;99650.41;;;7.28;87.70
81897;BME280;71360;43.506;1.500;2023-12-20T05:25:40;99651.19;;;7.32;87.96
81897;BME280;71360;43.506;1.500;2023-12-20T05:28:06;99658.19;;;7.34;87.58
81897;BME280;71360;43.506;1.500;2023-12-20T05:30:31;99658.09;;;7.37;87.75
81897;BME280;71360;43.506;1.500;2023-12-20T05:32:57;99664.28;;;7.38;88.28
81897;BME280;71360;43.506;1.500;2023-12-20T05:35:22;99673.00;;;7.43;87.96
81897;BME280;71360;43.506;1.500;2023-12-20T05:37:49;99670.25;;;7.46;88.26
81897;BME280;71360;43.506;1.500;2023-12-20T05:40:14;99665.75;;;7.48;87.97
81897;BME280;71360;43.506;1.500;2023-12-20T05:42:43;99671.94;;;7.49;87.92
81897;BME280;71360;43.506;1.500;2023-12-20T05:45:09;99671.84;;;7.52;87.90
81897;BME280;71360;43.506;1.500;2023-12-20T05:47:34;99670.88;;;7.54;88.17
81897;BME280;71360;43.506;1.500;2023-12-20T05:50:00;99681.38;;;7.59;88.22
81897;BME280;71360;43.506;1.500;2023-12-20T05:52:26;99687.47;;;7.63;88.13
81897;BME280;71360;43.506;1.500;2023-12-20T05:54:51;99683.88;;;7.64;88.13
81897;BME280;71360;43.506;1.500;2023-12-20T05:57:17;99689.84;;;7.72;88.56
81897;BME280;71360;43.506;1.500;2023-12-20T05:59:42;99691.59;;;7.73;88.72
81897;BME280;71360;43.506;1.500;2023-12-20T06:02:11;99692.31;;;7.78;88.49
81897;BME280;71360;43.506;1.500;2023-12-20T06:04:36;99707.25;;;7.82;88.67
81897;BME280;71360;43.506;1.500;2023-12-20T06:07:02;99699.06;;;7.88;88.64
81897;BME280;71360;43.506;1.500;2023-12-20T06:09:27;99715.81;;;7.92;88.74
81897;BME280;71360;43.506;1.500;2023-12-20T06:11:53;99719.28;;;7.94;88.68
81897;BME280;71360;43.506;1.500;2023-12-20T06:14:18;99728.00;;;7.99;88.54
81897;BME280;71360;43.506;1.500;2023-12-20T06:16:45;99728.72;;;8.04;88.55
81897;BME280;71360;43.506;1.500;2023-12-20T06:19:11;99734.84;;;8.08;88.49
81897;BME280;71360;43.506;1.500;2023-12-20T06:21:36;99740.00;;;8.13;88.77
81897;BME280;71360;43.506;1.500;2023-12-20T06:24:02;99729.19;;;8.17;88.88
81897;BME280;71360;43.506;1.500;2023-12-20T06:26:27;99739.75;;;8.20;88.99
81897;BME280;71360;43.506;1.500;2023-12-20T06:28:52;99743.22;;;8.22;88.59
81897;BME280;71360;43.506;1.500;2023-12-20T06:31:18;99741.28;;;8.27;88.57
81897;BME280;71360;43.506;1.500;2023-12-20T06:33:43;99754.44;;;8.32;88.93
81897;BME280;71360;43.506;1.500;2023-12-20T06:36:13;99756.06;;;8.36;88.78
81897;BME280;71360;43.506;1.500;2023-12-20T06:38:39;99760.44;;;8.39;88.38
81897;BME280;71360;43.506;1.500;2023-12-20T06:41:05;99771.00;;;8.42;88.56
81897;BME280;71360;43.506;1.500;2023-12-20T06:43:31;99762.97;;;8.43;88.31
81897;BME280;71360;43.506;1.500;2023-12-20T06:45:57;99765.50;;;8.48;88.64
81897;BME280;71360;43.506;1.500;2023-12-20T06:48:23;99776.97;;;8.50;88.56
81897;BME280;71360;43.506;1.500;2023-12-20T06:50:49;99772.47;;;8.52;88.45
81897;BME280;71360;43.506;1.500;2023-12-20T06:53:14;99776.88;;;8.53;88.49
81897;BME280;71360;43.506;1.500;2023-12-20T06:55:39;99790.09;;;8.56;88.39
81897;BME280;71360;43.506;1.500;2023-12-20T06:58:05;99782.97;;;8.57;88.49
81897;BME280;71360;43.506;1.500;2023-12-20T07:00:32;99790.88;;;8.60;88.48
81897;BME280;71360;43.506;1.500;2023-12-20T07:02:58;99791.72;;;8.60;88.42
81897;BME280;71360;43.506;1.500;2023-12-20T07:05:24;99793.34;;;8.65;88.51
81897;BME280;71360;43.506;1.500;2023-12-20T07:07:49;99805.72;;;8.67;88.68
81897;BME280;71360;43.506;1.500;2023-12-20T07:10:18;99810.06;;;8.70;88.63
81897;BME280;71360;43.506;1.500;2023-12-20T07:12:43;99819.81;;;8.71;88.75
81897;BME280;71360;43.506;1.500;2023-12-20T07:15:09;99828.63;;;8.73;88.84
81897;BME280;71360;43.506;1.500;2023-12-20T07:17:35;99837.44;;;8.75;88.37
81897;BME280;71360;43.506;1.500;2023-12-20T07:20:00;99837.34;;;8.78;88.84
81897;BME280;71360;43.506;1.500;2023-12-20T07:22:30;99826.66;;;8.78;88.76
81897;BME280;71360;43.506;1.500;2023-12-20T07:24:59;99833.75;;;8.79;88.82
81897;BME280;71360;43.506;1.500;2023-12-20T07:27:25;99842.59;;;8.79;88.42
81897;BME280;71360;43.506;1.500;2023-12-20T07:29:52;99853.22;;;8.81;88.80
81897;BME280;71360;43.506;1.500;2023-12-20T07:32:17;99857.69;;;8.81;87.95
81897;BME280;71360;43.506;1.500;2023-12-20T07:34:43;99854.09;;;8.82;88.17
81897;BME280;71360;43.506;1.500;2023-12-20T07:37:09;99865.63;;;8.82;88.02
81897;BME280;71360;43.506;1.500;2023-12-20T07:39:39;99872.75;;;8.82;87.64
81897;BME280;71360;43.506;1.500;2023-12-20T07:42:06;99880.81;;;8.80;87.15
81897;BME280;71360;43.506;1.500;2023-12-20T07:44:33;99884.50;;;8.76;87.11
81897;BME280;71360;43.506;1.500;2023-12-20T07:46:58;99889.88;;;8.74;87.12
81897;BME280;71360;43.506;1.500;2023-12-20T07:49:24;99897.16;;;8.69;86.93
81897;BME280;71360;43.506;1.500;2023-12-20T07:51:49;99898.13;;;8.67;86.88
81897;BME280;71360;43.506;1.500;2023-12-20T07:54:15;99912.47;;;8.63;86.22
81897;BME280;71360;43.506;1.500;2023-12-20T07:56:41;99913.44;;;8.60;86.36
81897;BME280;71360;43.506;1.500;2023-12-20T07:59:15;99925.06;;;8.57;86.71
81897;BME280;71360;43.506;1.500;2023-12-20T08:01:41;99928.75;;;8.53;86.30
81897;BME280;71360;43.506;1.500;2023-12-20T08:04:08;99935.88;;;8.51;86.58
81897;BME280;71360;43.506;1.500;2023-12-20T08:06:34;99944.88;;;8.49;86.08
81897;BME280;71360;43.506;1.500;2023-12-20T08:09:03;99943.19;;;8.46;86.30
81897;BME280;71360;43.506;1.500;2023-12-20T08:11:29;99967.19;;;8.43;85.99
81897;BME280;71360;43.506;1.500;2023-12-20T08:13:55;99960.13;;;8.42;86.30
81897;BME280;71360;43.506;1.500;2023-12-20T08:16:21;99969.13;;;8.38;85.82
81897;BME280;71360;43.506;1.500;2023-12-20T08:18:47;99973.63;;;8.36;86.12
81897;BME280;71360;43.506;1.500;2023-12-20T08:21:13;99984.34;;;8.34;85.93
81897;BME280;71360;43.506;1.500;2023-12-20T08:23:38;99991.53;;;8.31;86.25
81897;BME280;71360;43.506;1.500;2023-12-20T08:26:07;99996.94;;;8.27;86.18
81897;BME280;71360;43.506;1.500;2023-12-20T08:28:33;100000.56;;;8.25;86.10
81897;BME280;71360;43.506;1.500;2023-12-20T08:31:00;100013.03;;;8.24;85.86
81897;BME280;71360;43.506;1.500;2023-12-20T08:33:28;100025.50;;;8.22;85.62
81897;BME280;71360;43.506;1.500;2023-12-20T08:39:15;100020.44;;;8.13;85.70
81897;BME280;71360;43.506;1.500;2023-12-20T08:41:41;100030.25;;;8.11;85.80
81897;BME280;71360;43.506;1.500;2023-12-20T08:44:10;100032.94;;;8.11;85.98
81897;BME280;71360;43.506;1.500;2023-12-20T08:46:36;100042.72;;;8.09;86.09
81897;BME280;71360;43.506;1.500;2023-12-20T08:49:05;100050.75;;;8.07;85.67
81897;BME280;71360;43.506;1.500;2023-12-20T08:51:30;100056.13;;;8.06;85.63
81897;BME280;71360;43.506;1.500;2023-12-20T08:53:56;100065.03;;;8.05;85.88
81897;BME280;71360;43.506;1.500;2023-12-20T08:56:22;100068.59;;;8.05;86.05
81897;BME280;71360;43.506;1.500;2023-12-20T08:58:48;100073.97;;;8.04;85.88
81897;BME280;71360;43.506;1.500;2023-12-20T09:01:14;100081.00;;;8.05;85.30
81897;BME280;71360;43.506;1.500;2023-12-20T09:03:40;100084.59;;;8.04;85.36
81897;BME280;71360;43.506;1.500;2023-12-20T09:06:06;100088.16;;;8.03;85.69
81897;BME280;71360;43.506;1.500;2023-12-20T09:08:32;100099.69;;;8.03;85.72
81897;BME280;71360;43.506;1.500;2023-12-20T09:10:57;100093.44;;;8.04;85.92
81897;BME280;71360;43.506;1.500;2023-12-20T09:13:23;100101.44;;;8.04;85.85
81897;BME280;71360;43.506;1.500;2023-12-20T09:15:57;100108.53;;;8.05;85.68
81897;BME280;71360;43.506;1.500;2023-12-20T09:18:23;100124.50;;;8.05;85.77
81897;BME280;71360;43.506;1.500;2023-12-20T09:20:48;100123.56;;;8.06;85.91
81897;BME280;71360;43.506;1.500;2023-12-20T09:23:14;100120.94;;;8.05;85.79
81897;BME280;71360;43.506;1.500;2023-12-20T09:25:40;100130.69;;;8.06;85.36
81897;BME280;71360;43.506;1.500;2023-12-20T09:28:05;100136.00;;;8.06;85.50
81897;BME280;71360;43.506;1.500;2023-12-20T09:30:31;100138.63;;;8.07;85.50
81897;BME280;71360;43.506;1.500;2023-12-20T09:32:57;100148.41;;;8.07;85.25
81897;BME280;71360;43.506;1.500;2023-12-20T09:35:23;100141.34;;;8.06;85.49
81897;BME280;71360;43.506;1.500;2023-12-20T09:37:48;100151.13;;;8.05;85.73
81897;BME280;71360;43.506;1.500;2023-12-20T09:40:19;100143.09;;;8.07;85.63
81897;BME280;71360;43.506;1.500;2023-12-20T09:42:51;100147.53;;;8.06;84.86
81897;BME280;71360;43.506;1.500;2023-12-20T09:45:21;100157.31;;;8.06;85.22
81897;BME280;71360;43.506;1.500;2023-12-20T09:47:49;100153.75;;;8.07;85.01
81897;BME280;71360;43.506;1.500;2023-12-20T09:50:15;100151.97;;;8.06;85.36
81897;BME280;71360;43.506;1.500;2023-12-20T09:52:43;100159.06;;;8.07;85.37
81897;BME280;71360;43.506;1.500;2023-12-20T09:55:09;100156.31;;;8.10;84.71
81897;BME280;71360;43.506;1.500;2023-12-20T09:57:35;100150.94;;;8.11;85.09
81897;BME280;71360;43.506;1.500;2023-12-20T10:00:01;100157.13;;;8.14;84.65
81897;BME280;71360;43.506;1.500;2023-12-20T10:02:26;100160.66;;;8.14;85.19
81897;BME280;71360;43.506;1.500;2023-12-20T10:04:53;100162.34;;;8.17;85.24
81897;BME280;71360;43.506;1.500;2023-12-20T10:14:04;100162.16;;;8.24;84.82
81897;BME280;71360;43.506;1.500;2023-12-20T10:16:30;100162.03;;;8.29;84.68
81897;BME280;71360;43.506;1.500;2023-12-20T10:18:56;100158.38;;;8.33;84.34
81897;BME280;71360;43.506;1.500;2023-12-20T10:21:25;100166.28;;;8.36;84.03
81897;BME280;71360;43.506;1.500;2023-12-20T10:23:54;100166.22;;;8.39;84.29
81897;BME280;71360;43.506;1.500;2023-12-20T10:26:26;100161.66;;;8.43;83.19
81897;BME280;71360;43.506;1.500;2023-12-20T10:28:56;100169.63;;;8.44;83.17
81897;BME280;71360;43.506;1.500;2023-12-20T10:31:29;100167.88;;;8.45;83.34
81897;BME280;71360;43.506;1.500;2023-12-20T10:33:57;100152.69;;;8.47;82.82
81897;BME280;71360;43.506;1.500;2023-12-20T10:36:24;100145.66;;;8.46;82.93
81897;BME280;71360;43.506;1.500;2023-12-20T10:38:52;100141.97;;;8.50;83.17
81897;BME280;71360;43.506;1.500;2023-12-20T10:41:28;100140.13;;;8.52;82.96
81897;BME280;71360;43.506;1.500;2023-12-20T10:44:02;100142.69;;;8.55;82.29
81897;BME280;71360;43.506;1.500;2023-12-20T10:46:29;100145.38;;;8.55;81.98
81897;BME280;71360;43.506;1.500;2023-12-20T10:48:56;100145.34;;;8.57;81.82
81897;BME280;71360;43.506;1.500;2023-12-20T10:51:22;100139.94;;;8.60;82.42
81897;BME280;71360;43.506;1.500;2023-12-20T10:53:50;100138.00;;;8.65;82.46
81897;BME280;71360;43.506;1.500;2023-12-20T10:56:21;100132.44;;;8.74;82.36
81897;BME280;71360;43.506;1.500;2023-12-20T10:58:47;100131.31;;;8.82;82.47
81897;BME280;71360;43.506;1.500;2023-12-20T11:01:15;100139.06;;;8.89;82.19
81897;BME280;71360;43.506;1.500;2023-12-20T11:03:48;100120.19;;;8.97;81.95
81897;BME280;71360;43.506;1.500;2023-12-20T11:08:47;100126.00;;;9.11;81.54
81897;BME280;71360;43.506;1.500;2023-12-20T11:11:30;100127.50;;;9.20;80.81
81897;BME280;71360;43.506;1.500;2023-12-20T11:14:02;100118.47;;;9.24;81.25
81897;BME280;71360;43.506;1.500;2023-12-20T11:16:31;100125.38;;;9.32;80.77
81897;BME280;71360;43.506;1.500;2023-12-20T11:18:56;100123.44;;;9.37;80.18
81897;BME280;71360;43.506;1.500;2023-12-20T11:21:22;100118.97;;;9.37;79.98
81897;BME280;71360;43.506;1.500;2023-12-20T11:23:48;100110.00;;;9.40;78.81
81897;BME280;71360;43.506;1.500;2023-12-20T11:26:15;100108.25;;;9.39;78.55
81897;BME280;71360;43.506;1.500;2023-12-20T11:28:42;100094.81;;;9.42;78.33
81897;BME280;71360;43.506;1.500;2023-12-20T11:31:07;100092.88;;;9.47;78.19
81897;BME280;71360;43.506;1.500;2023-12-20T11:33:37;100089.97;;;9.55;77.98
81897;BME280;71360;43.506;1.500;2023-12-20T11:36:03;100099.44;;;9.63;75.96
81897;BME280;71360;43.506;1.500;2023-12-20T11:38:36;100099.41;;;9.65;75.87
81897;BME280;71360;43.506;1.500;2023-12-20T11:41:05;100090.63;;;9.61;74.83
81897;BME280;71360;43.506;1.500;2023-12-20T11:46:03;100094.53;;;9.51;74.79
81897;BME280;71360;43.506;1.500;2023-12-20T11:48:30;100077.72;;;9.48;74.91
81897;BME280;71360;43.506;1.500;2023-12-20T11:50:56;100080.56;;;9.43;74.77
81897;BME280;71360;43.506;1.500;2023-12-20T11:53:22;100080.56;;;9.43;74.99
81897;BME280;71360;43.506;1.500;2023-12-20T11:55:49;100090.38;;;9.41;74.48
81897;BME280;71360;43.506;1.500;2023-12-20T11:58:14;100090.44;;;9.39;74.36
81897;BME280;71360;43.506;1.500;2023-12-20T12:00:41;100070.00;;;9.40;74.15
81897;BME280;71360;43.506;1.500;2023-12-20T12:03:08;100063.00;;;9.36;74.33
81897;BME280;71360;43.506;1.500;2023-12-20T12:05:33;100079.09;;;9.33;73.66
81897;BME280;71360;43.506;1.500;2023-12-20T12:07:59;100077.56;;;9.25;73.14
81897;BME280;71360;43.506;1.500;2023-12-20T12:10:24;100092.00;;;9.18;73.38
81897;BME280;71360;43.506;1.500;2023-12-20T12:12:50;100090.44;;;9.11;72.30
81897;BME280;71360;43.506;1.500;2023-12-20T12:15:16;100106.75;;;9.00;72.32
81897;BME280;71360;43.506;1.500;2023-12-20T12:17:41;100107.06;;;8.91;72.54
81897;BME280;71360;43.506;1.500;2023-12-20T12:20:07;100104.41;;;8.89;71.61
81897;BME280;71360;43.506;1.500;2023-12-20T12:22:33;100103.75;;;8.83;71.62
81897;BME280;71360;43.506;1.500;2023-12-20T12:25:09;100098.44;;;8.81;70.57
81897;BME280;71360;43.506;1.500;2023-12-20T12:27:35;100111.09;;;8.74;70.19
81897;BME280;71360;43.506;1.500;2023-12-20T12:30:02;100117.41;;;8.70;70.15
81897;BME280;71360;43.506;1.500;2023-12-20T12:32:29;100104.22;;;8.66;68.78
81897;BME280;71360;43.506;1.500;2023-12-20T12:34:54;100114.19;;;8.59;69.00
81897;BME280;71360;43.506;1.500;2023-12-20T12:40:44;100112.44;;;8.58;68.61
81897;BME280;71360;43.506;1.500;2023-12-20T12:43:10;100099.97;;;8.60;68.38
81897;BME280;71360;43.506;1.500;2023-12-20T12:45:35;100108.75;;;8.64;68.28
81897;BME280;71360;43.506;1.500;2023-12-20T12:48:01;100110.41;;;8.66;68.65
81897;BME280;71360;43.506;1.500;2023-12-20T12:50:26;100105.03;;;8.69;69.43
81897;BME280;71360;43.506;1.500;2023-12-20T12:52:53;100105.72;;;8.76;69.30
81897;BME280;71360;43.506;1.500;2023-12-20T12:55:19;100102.75;;;8.87;68.31
81897;BME280;71360;43.506;1.500;2023-12-20T12:57:44;100107.00;;;8.92;68.47
81897;BME280;71360;43.506;1.500;2023-12-20T13:00:10;100104.88;;;9.04;68.14
81897;BME280;71360;43.506;1.500;2023-12-20T13:02:36;100116.09;;;9.15;66.78
81897;BME280;71360;43.506;1.500;2023-12-20T13:05:04;100123.81;;;9.24;66.71
81897;BME280;71360;43.506;1.500;2023-12-20T13:07:29;100128.97;;;9.31;65.86
81897;BME280;71360;43.506;1.500;2023-12-20T13:09:56;100123.63;;;9.31;65.51
81897;BME280;71360;43.506;1.500;2023-12-20T13:12:21;100123.06;;;9.19;65.13
81897;BME280;71360;43.506;1.500;2023-12-20T13:14:47;100124.41;;;9.04;65.54
81897;BME280;71360;43.506;1.500;2023-12-20T13:17:12;100116.03;;;8.88;66.27
81897;BME280;71360;43.506;1.500;2023-12-20T13:19:38;100115.44;;;8.78;66.76